sensor_id;sensor_type;location;lat;lon;timestamp;temperature;humidity
26691;DHT22;14307;51.718;8.938;2023-03-23T00:01:48;11.30;99.90
26691;DHT22;14307;51.718;8.938;2023-03-23T00:04:17;11.40;99.90
26691;DHT22;14307;51.718;8.938;2023-03-23T00:06:44;11.40;99.90
26691;DHT22;14307;51.718;8.938;2023-03-23T00:09:12;11.50;99.90
26691;DHT22;14307;51.718;8.938;2023-03-23T00:11:38;11.50;99.90
26691;DHT22;14307;51.718;8.938;2023-03-23T00:14:04;11.50;99.90
26691;DHT22;14307;51.718;8.938;2023-03-23T00:16:32;11.50;99.90
26691;DHT22;14307;51.718;8.938;2023-03-23T00:19:04;11.40;99.90
26691;DHT22;14307;51.718;8.938;2023-03-23T00:21:37;11.50;99.90
26691;DHT22;14307;51.718;8.938;2023-03-23T00:24:15;11.50;99.90
26691;DHT22;14307;51.718;8.938;2023-03-23T00:26:43;11.50;99.90
26691;DHT22;14307;51.718;8.938;2023-03-23T00:29:21;11.50;99.90
26691;DHT22;14307;51.718;8.938;2023-03-23T00:31:50;11.60;99.90
26691;DHT22;14307;51.718;8.938;2023-03-23T00:34:18;11.60;99.90
26691;DHT22;14307;51.718;8.938;2023-03-23T00:36:49;11.60;99.90
26691;DHT22;14307;51.718;8.938;2023-03-23T00:39:16;11.60;99.90
26691;DHT22;14307;51.718;8.938;2023-03-23T00:41:44;11.50;99.90
26691;DHT22;14307;51.718;8.938;2023-03-23T00:44:10;11.40;99.90
26691;DHT22;14307;51.718;8.938;2023-03-23T00:46:46;11.40;99.90
26691;DHT22;14307;51.718;8.938;2023-03-23T00:49:16;11.40;99.90
26691;DHT22;14307;51.718;8.938;2023-03-23T00:51:43;11.30;99.90
26691;DHT22;14307;51.718;8.938;2023-03-23T00:54:10;11.30;99.90
26691;DHT22;14307;51.718;8.938;2023-03-23T00:56:36;11.30;99.90
26691;DHT22;14307;51.718;8.938;2023-03-23T00:59:03;11.30;99.90
26691;DHT22;14307;51.718;8.938;2023-03-23T01:01:29;11.20;99.90
26691;DHT22;14307;51.718;8.938;2023-03-23T01:03:58;11.30;99.90
26691;DHT22;14307;51.718;8.938;2023-03-23T01:06:27;11.30;99.90
26691;DHT22;14307;51.718;8.938;2023-03-23T01:08:54;11.30;99.90
26691;DHT22;14307;51.718;8.938;2023-03-23T01:11:20;11.30;99.90
26691;DHT22;14307;51.718;8.938;2023-03-23T01:13:46;11.30;99.90
26691;DHT22;14307;51.718;8.938;2023-03-23T01:16:12;11.30;99.90
26691;DHT22;14307;51.718;8.938;2023-03-23T01:18:39;11.30;99.90
26691;DHT22;14307;51.718;8.938;2023-03-23T01:21:13;11.30;99.90
26691;DHT22;14307;51.718;8.938;2023-03-23T01:23:40;11.30;99.90
26691;DHT22;14307;51.718;8.938;2023-03-23T01:26:14;11.20;99.90
26691;DHT22;14307;51.718;8.938;2023-03-23T01:28:41;11.20;99.90
26691;DHT22;14307;51.718;8.938;2023-03-23T01:31:10;11.10;99.90
26691;DHT22;14307;51.718;8.938;2023-03-23T01:33:38;11.10;99.90
26691;DHT22;14307;51.718;8.938;2023-03-23T01:36:07;11.10;99.90
26691;DHT22;14307;51.718;8.938;2023-03-23T01:38:34;11.00;99.90
26691;DHT22;14307;51.718;8.938;2023-03-23T01:41:01;11.00;99.90
26691;DHT22;14307;51.718;8.938;2023-03-23T01:43:27;11.00;99.90
26691;DHT22;14307;51.718;8.938;2023-03-23T01:45:53;11.00;99.90
26691;DHT22;14307;51.718;8.938;2023-03-23T01:48:32;11.00;99.90
26691;DHT22;14307;51.718;8.938;2023-03-23T01:51:06;11.10;99.90
26691;DHT22;14307;51.718;8.938;2023-03-23T01:53:37;11.10;99.90
26691;DHT22;14307;51.718;8.938;2023-03-23T01:56:04;11.10;99.90
26691;DHT22;14307;51.718;8.938;2023-03-23T01:58:34;11.10;99.90
26691;DHT22;14307;51.718;8.938;2023-03-23T02:01:04;11.10;99.90
26691;DHT22;14307;51.718;8.938;2023-03-23T02:03:32;11.10;99.90
26691;DHT22;14307;51.718;8.938;2023-03-23T02:05:59;11.20;99.90
26691;DHT22;14307;51.718;8.938;2023-03-23T02:08:35;11.10;99.90
26691;DHT22;14307;51.718;8.938;2023-03-23T02:11:08;11.10;99.90
26691;DHT22;14307;51.718;8.938;2023-03-23T02:13:34;11.00;99.90
26691;DHT22;14307;51.718;8.938;2023-03-23T02:19:01;11.10;99.90
26691;DHT22;14307;51.718;8.938;2023-03-23T02:21:40;11.20;99.90
26691;DHT22;14307;51.718;8.938;2023-03-23T02:27:08;11.20;99.90
26691;DHT22;14307;51.718;8.938;2023-03-23T02:30:11;11.30;99.90
26691;DHT22;14307;51.718;8.938;2023-03-23T02:35:21;11.20;99.90
26691;DHT22;14307;51.718;8.938;2023-03-23T02:37:57;11.20;99.90
26691;DHT22;14307;51.718;8.938;2023-03-23T02:40:30;11.00;99.90
26691;DHT22;14307;51.718;8.938;2023-03-23T02:42:57;11.00;99.90
26691;DHT22;14307;51.718;8.938;2023-03-23T02:45:26;10.90;99.90
26691;DHT22;14307;51.718;8.938;2023-03-23T02:47:53;10.90;99.90
26691;DHT22;14307;51.718;8.938;2023-03-23T02:50:22;10.90;99.90
26691;DHT22;14307;51.718;8.938;2023-03-23T02:52:49;10.90;99.90
26691;DHT22;14307;51.718;8.938;2023-03-23T02:55:18;10.80;99.90
26691;DHT22;14307;51.718;8.938;2023-03-23T02:57:45;10.80;99.90
26691;DHT22;14307;51.718;8.938;2023-03-23T03:00:16;10.70;99.90
26691;DHT22;14307;51.718;8.938;2023-03-23T03:02:44;10.70;99.90
26691;DHT22;14307;51.718;8.938;2023-03-23T03:08:15;10.60;99.90
26691;DHT22;14307;51.718;8.938;2023-03-23T03:10:57;10.60;99.90
26691;DHT22;14307;51.718;8.938;2023-03-23T03:19:06;10.50;99.90
26691;DHT22;14307;51.718;8.938;2023-03-23T03:21:35;10.50;99.90
26691;DHT22;14307;51.718;8.938;2023-03-23T03:24:04;10.40;99.90
26691;DHT22;14307;51.718;8.938;2023-03-23T03:26:35;10.40;99.90
26691;DHT22;14307;51.718;8.938;2023-03-23T03:29:20;10.20;99.90
26691;DHT22;14307;51.718;8.938;2023-03-23T03:31:49;10.20;99.90
26691;DHT22;14307;51.718;8.938;2023-03-23T03:34:17;10.20;99.90
26691;DHT22;14307;51.718;8.938;2023-03-23T03:36:47;10.20;99.90
26691;DHT22;14307;51.718;8.938;2023-03-23T03:39:14;10.20;99.90
26691;DHT22;14307;51.718;8.938;2023-03-23T03:41:43;10.20;99.90
26691;DHT22;14307;51.718;8.938;2023-03-23T03:44:10;10.10;99.90
26691;DHT22;14307;51.718;8.938;2023-03-23T03:46:36;10.10;99.90
26691;DHT22;14307;51.718;8.938;2023-03-23T03:49:06;10.10;99.90
26691;DHT22;14307;51.718;8.938;2023-03-23T03:51:35;10.00;99.90
26691;DHT22;14307;51.718;8.938;2023-03-23T03:54:03;10.00;99.90
26691;DHT22;14307;51.718;8.938;2023-03-23T03:56:29;10.00;99.90
26691;DHT22;14307;51.718;8.938;2023-03-23T03:59:09;10.00;99.90
26691;DHT22;14307;51.718;8.938;2023-03-23T04:01:48;10.10;99.90
26691;DHT22;14307;51.718;8.938;2023-03-23T04:04:20;10.10;99.90
26691;DHT22;14307;51.718;8.938;2023-03-23T04:06:47;10.10;99.90
26691;DHT22;14307;51.718;8.938;2023-03-23T04:09:14;10.10;99.90
26691;DHT22;14307;51.718;8.938;2023-03-23T04:11:40;10.10;99.90
26691;DHT22;14307;51.718;8.938;2023-03-23T04:14:29;10.10;99.90
26691;DHT22;14307;51.718;8.938;2023-03-23T04:16:54;10.00;99.90
26691;DHT22;14307;51.718;8.938;2023-03-23T04:19:23;10.00;99.90
26691;DHT22;14307;51.718;8.938;2023-03-23T04:21:49;10.00;99.90
26691;DHT22;14307;51.718;8.938;2023-03-23T04:24:16;10.00;99.90
26691;DHT22;14307;51.718;8.938;2023-03-23T04:26:42;9.90;99.90
26691;DHT22;14307;51.718;8.938;2023-03-23T04:29:18;9.90;99.90
26691;DHT22;14307;51.718;8.938;2023-03-23T04:32:05;10.00;99.90
26691;DHT22;14307;51.718;8.938;2023-03-23T04:34:37;10.00;99.90
26691;DHT22;14307;51.718;8.938;2023-03-23T04:37:03;10.00;99.90
26691;DHT22;14307;51.718;8.938;2023-03-23T04:39:31;10.00;99.90
26691;DHT22;14307;51.718;8.938;2023-03-23T04:42:01;10.00;99.90
26691;DHT22;14307;51.718;8.938;2023-03-23T04:44:49;10.10;99.90
26691;DHT22;14307;51.718;8.938;2023-03-23T04:47:20;10.10;99.90
26691;DHT22;14307;51.718;8.938;2023-03-23T04:49:53;10.00;99.90
26691;DHT22;14307;51.718;8.938;2023-03-23T04:52:26;10.10;99.90
26691;DHT22;14307;51.718;8.938;2023-03-23T04:54:56;10.10;99.90
26691;DHT22;14307;51.718;8.938;2023-03-23T04:57:22;10.10;99.90
26691;DHT22;14307;51.718;8.938;2023-03-23T05:00:09;10.10;99.90
26691;DHT22;14307;51.718;8.938;2023-03-23T05:02:42;10.10;99.90
26691;DHT22;14307;51.718;8.938;2023-03-23T05:05:10;10.10;99.90
26691;DHT22;14307;51.718;8.938;2023-03-23T05:07:37;10.00;99.90
26691;DHT22;14307;51.718;8.938;2023-03-23T05:10:05;10.00;99.90
26691;DHT22;14307;51.718;8.938;2023-03-23T05:12:31;10.10;99.90
26691;DHT22;14307;51.718;8.938;2023-03-23T05:15:01;10.10;99.90
26691;DHT22;14307;51.718;8.938;2023-03-23T05:17:29;10.10;99.90
26691;DHT22;14307;51.718;8.938;2023-03-23T05:19:58;10.10;99.90
26691;DHT22;14307;51.718;8.938;2023-03-23T05:22:35;10.20;99.90
26691;DHT22;14307;51.718;8.938;2023-03-23T05:25:03;10.10;99.90
26691;DHT22;14307;51.718;8.938;2023-03-23T05:27:33;10.20;99.90
26691;DHT22;14307;51.718;8.938;2023-03-23T05:30:04;10.30;99.90
26691;DHT22;14307;51.718;8.938;2023-03-23T05:32:32;10.20;99.90
26691;DHT22;14307;51.718;8.938;2023-03-23T05:35:09;10.30;99.90
26691;DHT22;14307;51.718;8.938;2023-03-23T05:37:34;10.40;99.90
26691;DHT22;14307;51.718;8.938;2023-03-23T05:40:08;10.30;99.90
26691;DHT22;14307;51.718;8.938;2023-03-23T05:42:41;10.40;99.90
26691;DHT22;14307;51.718;8.938;2023-03-23T05:45:14;10.30;99.90
26691;DHT22;14307;51.718;8.938;2023-03-23T05:47:42;10.30;99.90
26691;DHT22;14307;51.718;8.938;2023-03-23T05:50:13;10.30;99.90
26691;DHT22;14307;51.718;8.938;2023-03-23T05:52:40;10.30;99.90
26691;DHT22;14307;51.718;8.938;2023-03-23T05:55:09;10.30;99.90
26691;DHT22;14307;51.718;8.938;2023-03-23T05:57:37;10.30;99.90
26691;DHT22;14307;51.718;8.938;2023-03-23T06:00:26;10.30;99.90
26691;DHT22;14307;51.718;8.938;2023-03-23T06:03:04;10.30;99.90
26691;DHT22;14307;51.718;8.938;2023-03-23T06:05:45;10.30;99.90
26691;DHT22;14307;51.718;8.938;2023-03-23T06:08:14;10.40;99.90
26691;DHT22;14307;51.718;8.938;2023-03-23T06:10:40;10.40;99.90
26691;DHT22;14307;51.718;8.938;2023-03-23T06:13:07;10.40;99.90
26691;DHT22;14307;51.718;8.938;2023-03-23T06:15:46;10.40;99.90
26691;DHT22;14307;51.718;8.938;2023-03-23T06:18:39;10.40;99.90
26691;DHT22;14307;51.718;8.938;2023-03-23T06:21:14;10.30;99.90
26691;DHT22;14307;51.718;8.938;2023-03-23T06:23:55;10.30;99.90
26691;DHT22;14307;51.718;8.938;2023-03-23T06:26:30;10.40;99.90
26691;DHT22;14307;51.718;8.938;2023-03-23T06:28:59;10.50;99.90
26691;DHT22;14307;51.718;8.938;2023-03-23T06:31:27;10.60;99.90
26691;DHT22;14307;51.718;8.938;2023-03-23T06:33:53;10.60;99.90
26691;DHT22;14307;51.718;8.938;2023-03-23T06:36:39;10.60;99.90
26691;DHT22;14307;51.718;8.938;2023-03-23T06:39:10;10.70;99.90
26691;DHT22;14307;51.718;8.938;2023-03-23T06:42:02;10.80;99.90
26691;DHT22;14307;51.718;8.938;2023-03-23T06:44:32;10.90;99.90
26691;DHT22;14307;51.718;8.938;2023-03-23T06:46:59;10.90;99.90
26691;DHT22;14307;51.718;8.938;2023-03-23T06:49:28;10.90;99.90
26691;DHT22;14307;51.718;8.938;2023-03-23T06:52:12;10.90;99.90
26691;DHT22;14307;51.718;8.938;2023-03-23T06:54:39;10.90;99.90
26691;DHT22;14307;51.718;8.938;2023-03-23T06:57:07;10.90;99.90
26691;DHT22;14307;51.718;8.938;2023-03-23T06:59:32;10.90;99.90
26691;DHT22;14307;51.718;8.938;2023-03-23T07:02:00;10.90;99.90
26691;DHT22;14307;51.718;8.938;2023-03-23T07:04:25;10.90;99.90
26691;DHT22;14307;51.718;8.938;2023-03-23T07:07:05;11.00;99.90
26691;DHT22;14307;51.718;8.938;2023-03-23T07:09:37;11.00;99.90
26691;DHT22;14307;51.718;8.938;2023-03-23T07:12:03;11.00;99.90
26691;DHT22;14307;51.718;8.938;2023-03-23T07:14:34;11.10;99.90
26691;DHT22;14307;51.718;8.938;2023-03-23T07:17:00;11.20;99.90
26691;DHT22;14307;51.718;8.938;2023-03-23T07:19:27;11.20;99.90
26691;DHT22;14307;51.718;8.938;2023-03-23T07:21:53;11.20;99.90
26691;DHT22;14307;51.718;8.938;2023-03-23T07:24:21;11.20;99.90
26691;DHT22;14307;51.718;8.938;2023-03-23T07:27:04;11.30;99.90
26691;DHT22;14307;51.718;8.938;2023-03-23T07:29:30;11.40;99.90
26691;DHT22;14307;51.718;8.938;2023-03-23T07:32:10;11.50;99.90
26691;DHT22;14307;51.718;8.938;2023-03-23T07:34:37;11.40;99.90
26691;DHT22;14307;51.718;8.938;2023-03-23T07:37:30;11.40;99.90
26691;DHT22;14307;51.718;8.938;2023-03-23T07:39:57;11.40;99.90
26691;DHT22;14307;51.718;8.938;2023-03-23T07:42:23;11.50;99.90
26691;DHT22;14307;51.718;8.938;2023-03-23T07:44:55;11.50;99.90
26691;DHT22;14307;51.718;8.938;2023-03-23T07:47:21;11.50;99.90
26691;DHT22;14307;51.718;8.938;2023-03-23T07:49:48;11.60;99.90
26691;DHT22;14307;51.718;8.938;2023-03-23T07:52:23;11.60;99.90
26691;DHT22;14307;51.718;8.938;2023-03-23T07:54:50;11.70;99.90
26691;DHT22;14307;51.718;8.938;2023-03-23T07:57:42;11.80;99.90
26691;DHT22;14307;51.718;8.938;2023-03-23T08:00:09;11.90;99.90
26691;DHT22;14307;51.718;8.938;2023-03-23T08:02:41;11.90;99.90
26691;DHT22;14307;51.718;8.938;2023-03-23T08:05:30;11.90;99.90
26691;DHT22;14307;51.718;8.938;2023-03-23T08:08:11;11.90;99.90
26691;DHT22;14307;51.718;8.938;2023-03-23T08:10:56;11.80;99.90
26691;DHT22;14307;51.718;8.938;2023-03-23T08:13:49;11.90;99.90
26691;DHT22;14307;51.718;8.938;2023-03-23T08:16:35;11.90;99.90
26691;DHT22;14307;51.718;8.938;2023-03-23T08:19:01;11.90;99.90
26691;DHT22;14307;51.718;8.938;2023-03-23T08:21:46;11.90;99.90
26691;DHT22;14307;51.718;8.938;2023-03-23T08:24:41;12.00;99.90
26691;DHT22;14307;51.718;8.938;2023-03-23T08:27:28;12.00;99.90
26691;DHT22;14307;51.718;8.938;2023-03-23T08:30:17;12.10;99.90
26691;DHT22;14307;51.718;8.938;2023-03-23T08:33:03;12.10;99.90
26691;DHT22;14307;51.718;8.938;2023-03-23T08:35:58;12.20;99.90
26691;DHT22;14307;51.718;8.938;2023-03-23T08:38:45;12.30;99.90
26691;DHT22;14307;51.718;8.938;2023-03-23T08:41:20;12.20;99.90
26691;DHT22;14307;51.718;8.938;2023-03-23T08:43:59;12.30;99.90
26691;DHT22;14307;51.718;8.938;2023-03-23T08:46:57;12.20;99.90
26691;DHT22;14307;51.718;8.938;2023-03-23T08:49:45;12.20;99.90
26691;DHT22;14307;51.718;8.938;2023-03-23T08:52:36;12.20;99.90
26691;DHT22;14307;51.718;8.938;2023-03-23T08:55:28;12.30;99.90
26691;DHT22;14307;51.718;8.938;2023-03-23T08:58:20;12.30;99.90
26691;DHT22;14307;51.718;8.938;2023-03-23T09:00:59;12.20;99.90
26691;DHT22;14307;51.718;8.938;2023-03-23T09:03:45;12.30;99.90
26691;DHT22;14307;51.718;8.938;2023-03-23T09:06:36;12.20;99.90
26691;DHT22;14307;51.718;8.938;2023-03-23T09:09:03;12.30;99.90
26691;DHT22;14307;51.718;8.938;2023-03-23T09:11:36;12.20;99.90
26691;DHT22;14307;51.718;8.938;2023-03-23T09:14:03;12.30;99.90
26691;DHT22;14307;51.718;8.938;2023-03-23T09:16:29;12.30;99.90
26691;DHT22;14307;51.718;8.938;2023-03-23T09:18:55;12.30;99.90
26691;DHT22;14307;51.718;8.938;2023-03-23T09:21:23;12.40;99.90
26691;DHT22;14307;51.718;8.938;2023-03-23T09:23:49;12.60;99.90
26691;DHT22;14307;51.718;8.938;2023-03-23T09:26:15;12.60;99.90
26691;DHT22;14307;51.718;8.938;2023-03-23T09:28:41;12.60;99.90
26691;DHT22;14307;51.718;8.938;2023-03-23T09:31:06;12.80;99.90
26691;DHT22;14307;51.718;8.938;2023-03-23T09:33:33;12.70;99.90
26691;DHT22;14307;51.718;8.938;2023-03-23T09:35:59;12.80;99.90
26691;DHT22;14307;51.718;8.938;2023-03-23T09:38:25;12.70;99.90
26691;DHT22;14307;51.718;8.938;2023-03-23T09:41:19;12.80;99.90
26691;DHT22;14307;51.718;8.938;2023-03-23T09:43:53;12.80;99.90
26691;DHT22;14307;51.718;8.938;2023-03-23T09:46:44;12.70;99.90
26691;DHT22;14307;51.718;8.938;2023-03-23T09:49:34;12.70;99.90
26691;DHT22;14307;51.718;8.938;2023-03-23T09:52:14;12.70;99.90
26691;DHT22;14307;51.718;8.938;2023-03-23T09:54:50;12.80;99.90
26691;DHT22;14307;51.718;8.938;2023-03-23T10:00:35;12.90;99.90
26691;DHT22;14307;51.718;8.938;2023-03-23T10:03:16;12.80;99.90
26691;DHT22;14307;51.718;8.938;2023-03-23T10:05:46;12.90;99.90
26691;DHT22;14307;51.718;8.938;2023-03-23T10:08:16;12.90;99.90
26691;DHT22;14307;51.718;8.938;2023-03-23T10:16:03;12.90;99.90
26691;DHT22;14307;51.718;8.938;2023-03-23T10:18:38;12.90;99.90
26691;DHT22;14307;51.718;8.938;2023-03-23T10:21:11;13.00;99.90
26691;DHT22;14307;51.718;8.938;2023-03-23T10:26:37;12.90;99.90
26691;DHT22;14307;51.718;8.938;2023-03-23T10:29:21;12.90;99.90
26691;DHT22;14307;51.718;8.938;2023-03-23T10:32:00;12.80;99.90
26691;DHT22;14307;51.718;8.938;2023-03-23T10:34:49;12.80;99.90
26691;DHT22;14307;51.718;8.938;2023-03-23T10:39:54;12.90;99.90
26691;DHT22;14307;51.718;8.938;2023-03-23T10:42:27;13.00;99.90
26691;DHT22;14307;51.718;8.938;2023-03-23T10:44:55;13.20;99.90
26691;DHT22;14307;51.718;8.938;2023-03-23T10:47:22;13.20;99.90
26691;DHT22;14307;51.718;8.938;2023-03-23T10:49:54;13.20;99.90
26691;DHT22;14307;51.718;8.938;2023-03-23T10:52:41;13.20;99.90
26691;DHT22;14307;51.718;8.938;2023-03-23T10:55:09;13.30;99.90
26691;DHT22;14307;51.718;8.938;2023-03-23T10:57:36;13.30;99.90
26691;DHT22;14307;51.718;8.938;2023-03-23T11:00:29;13.20;99.90
26691;DHT22;14307;51.718;8.938;2023-03-23T11:02:59;13.20;99.90
26691;DHT22;14307;51.718;8.938;2023-03-23T11:05:50;13.30;99.90
26691;DHT22;14307;51.718;8.938;2023-03-23T11:08:19;13.30;99.90
26691;DHT22;14307;51.718;8.938;2023-03-23T11:10:58;13.20;99.90
26691;DHT22;14307;51.718;8.938;2023-03-23T11:13:31;13.20;99.90
26691;DHT22;14307;51.718;8.938;2023-03-23T11:15:57;13.20;99.90
26691;DHT22;14307;51.718;8.938;2023-03-23T11:18:26;13.30;99.90
26691;DHT22;14307;51.718;8.938;2023-03-23T11:20:55;13.40;99.90
26691;DHT22;14307;51.718;8.938;2023-03-23T11:23:27;13.40;99.90
26691;DHT22;14307;51.718;8.938;2023-03-23T11:28:42;13.40;99.90
26691;DHT22;14307;51.718;8.938;2023-03-23T11:31:08;13.50;99.90
26691;DHT22;14307;51.718;8.938;2023-03-23T11:33:51;13.50;99.90
26691;DHT22;14307;51.718;8.938;2023-03-23T11:36:18;13.50;99.90
26691;DHT22;14307;51.718;8.938;2023-03-23T11:38:45;13.60;99.90
26691;DHT22;14307;51.718;8.938;2023-03-23T11:41:12;13.60;99.90
26691;DHT22;14307;51.718;8.938;2023-03-23T11:43:45;13.60;99.90
26691;DHT22;14307;51.718;8.938;2023-03-23T11:46:23;13.60;99.90
26691;DHT22;14307;51.718;8.938;2023-03-23T11:49:01;13.50;99.90
26691;DHT22;14307;51.718;8.938;2023-03-23T11:54:46;13.20;99.90
26691;DHT22;14307;51.718;8.938;2023-03-23T11:56:52;13.20;99.90
26691;DHT22;14307;51.718;8.938;2023-03-23T11:59:29;13.20;99.90
26691;DHT22;14307;51.718;8.938;2023-03-23T12:02:09;13.10;99.90
26691;DHT22;14307;51.718;8.938;2023-03-23T12:10:25;13.20;99.90
26691;DHT22;14307;51.718;8.938;2023-03-23T12:13:37;13.10;99.90
26691;DHT22;14307;51.718;8.938;2023-03-23T12:16:20;13.00;99.90
26691;DHT22;14307;51.718;8.938;2023-03-23T12:21:44;13.00;99.90
26691;DHT22;14307;51.718;8.938;2023-03-23T12:26:51;11.90;99.90
26691;DHT22;14307;51.718;8.938;2023-03-23T12:38:20;10.90;99.90
26691;DHT22;14307;51.718;8.938;2023-03-23T12:43:50;10.70;99.90
26691;DHT22;14307;51.718;8.938;2023-03-23T12:46:35;10.60;99.90
26691;DHT22;14307;51.718;8.938;2023-03-23T12:51:59;10.50;99.90
26691;DHT22;14307;51.718;8.938;2023-03-23T12:54:45;10.50;99.90
26691;DHT22;14307;51.718;8.938;2023-03-23T12:57:34;10.60;99.90
26691;DHT22;14307;51.718;8.938;2023-03-23T13:08:04;10.40;99.90
26691;DHT22;14307;51.718;8.938;2023-03-23T13:13:14;10.30;99.90
26691;DHT22;14307;51.718;8.938;2023-03-23T13:15:55;10.40;99.90
26691;DHT22;14307;51.718;8.938;2023-03-23T13:21:46;10.50;99.90
26691;DHT22;14307;51.718;8.938;2023-03-23T13:24:17;10.40;99.90
26691;DHT22;14307;51.718;8.938;2023-03-23T13:26:44;10.50;99.90
26691;DHT22;14307;51.718;8.938;2023-03-23T13:29:17;10.40;99.90
26691;DHT22;14307;51.718;8.938;2023-03-23T13:31:47;10.40;99.90
26691;DHT22;14307;51.718;8.938;2023-03-23T13:36:55;10.40;99.90
26691;DHT22;14307;51.718;8.938;2023-03-23T13:39:23;10.30;99.90
26691;DHT22;14307;51.718;8.938;2023-03-23T13:44:42;10.20;99.90
26691;DHT22;14307;51.718;8.938;2023-03-23T13:50:02;10.10;99.90
26691;DHT22;14307;51.718;8.938;2023-03-23T13:57:55;10.20;99.90
26691;DHT22;14307;51.718;8.938;2023-03-23T14:03:12;10.10;99.90
26691;DHT22;14307;51.718;8.938;2023-03-23T14:10:55;10.30;99.90
26691;DHT22;14307;51.718;8.938;2023-03-23T14:13:24;10.40;99.90
26691;DHT22;14307;51.718;8.938;2023-03-23T14:18:57;10.50;99.90
26691;DHT22;14307;51.718;8.938;2023-03-23T14:24:15;10.40;99.90
26691;DHT22;14307;51.718;8.938;2023-03-23T14:26:42;10.50;99.90
26691;DHT22;14307;51.718;8.938;2023-03-23T14:29:11;10.40;99.90
26691;DHT22;14307;51.718;8.938;2023-03-23T14:31:38;10.40;99.90
26691;DHT22;14307;51.718;8.938;2023-03-23T14:34:13;10.40;99.90
26691;DHT22;14307;51.718;8.938;2023-03-23T14:36:39;10.40;99.90
26691;DHT22;14307;51.718;8.938;2023-03-23T14:39:24;10.40;99.90
26691;DHT22;14307;51.718;8.938;2023-03-23T14:41:53;10.60;99.90
26691;DHT22;14307;51.718;8.938;2023-03-23T14:44:25;10.50;99.90
26691;DHT22;14307;51.718;8.938;2023-03-23T14:46:52;10.40;99.90
26691;DHT22;14307;51.718;8.938;2023-03-23T14:49:30;10.40;99.90
26691;DHT22;14307;51.718;8.938;2023-03-23T14:52:03;10.40;99.90
26691;DHT22;14307;51.718;8.938;2023-03-23T14:54:31;10.30;99.90
26691;DHT22;14307;51.718;8.938;2023-03-23T14:57:13;10.30;99.90
26691;DHT22;14307;51.718;8.938;2023-03-23T14:59:44;10.40;99.90
26691;DHT22;14307;51.718;8.938;2023-03-23T15:02:14;10.40;99.90
26691;DHT22;14307;51.718;8.938;2023-03-23T15:04:44;10.50;99.90
26691;DHT22;14307;51.718;8.938;2023-03-23T15:07:11;10.50;99.90
26691;DHT22;14307;51.718;8.938;2023-03-23T15:09:40;10.60;99.90
26691;DHT22;14307;51.718;8.938;2023-03-23T15:12:06;10.60;99.90
26691;DHT22;14307;51.718;8.938;2023-03-23T15:14:45;10.60;99.90
26691;DHT22;14307;51.718;8.938;2023-03-23T15:17:24;10.60;99.90
26691;DHT22;14307;51.718;8.938;2023-03-23T15:19:51;10.60;99.90
26691;DHT22;14307;51.718;8.938;2023-03-23T15:22:24;10.50;99.90
26691;DHT22;14307;51.718;8.938;2023-03-23T15:24:53;10.50;99.90
26691;DHT22;14307;51.718;8.938;2023-03-23T15:27:32;10.50;99.90
26691;DHT22;14307;51.718;8.938;2023-03-23T15:30:10;10.50;99.90
26691;DHT22;14307;51.718;8.938;2023-03-23T15:32:41;10.50;99.90
26691;DHT22;14307;51.718;8.938;2023-03-23T15:35:15;10.50;99.90
26691;DHT22;14307;51.718;8.938;2023-03-23T15:38:03;10.50;99.90
26691;DHT22;14307;51.718;8.938;2023-03-23T15:40:33;10.50;99.90
26691;DHT22;14307;51.718;8.938;2023-03-23T15:48:53;10.50;99.90
26691;DHT22;14307;51.718;8.938;2023-03-23T15:51:22;10.50;99.90
26691;DHT22;14307;51.718;8.938;2023-03-23T15:53:50;10.50;99.90
26691;DHT22;14307;51.718;8.938;2023-03-23T15:56:17;10.60;99.90
26691;DHT22;14307;51.718;8.938;2023-03-23T15:58:44;10.60;99.90
26691;DHT22;14307;51.718;8.938;2023-03-23T16:03:55;10.60;99.90
26691;DHT22;14307;51.718;8.938;2023-03-23T16:06:25;10.70;99.90
26691;DHT22;14307;51.718;8.938;2023-03-23T16:08:54;10.80;99.90
26691;DHT22;14307;51.718;8.938;2023-03-23T16:11:23;10.80;99.90
26691;DHT22;14307;51.718;8.938;2023-03-23T16:13:50;10.90;99.90
26691;DHT22;14307;51.718;8.938;2023-03-23T16:16:28;10.90;99.90
26691;DHT22;14307;51.718;8.938;2023-03-23T16:18:56;10.90;99.90
26691;DHT22;14307;51.718;8.938;2023-03-23T16:21:22;10.90;99.90
26691;DHT22;14307;51.718;8.938;2023-03-23T16:23:49;10.90;99.90
26691;DHT22;14307;51.718;8.938;2023-03-23T16:26:16;10.90;99.90
26691;DHT22;14307;51.718;8.938;2023-03-23T16:28:43;11.00;99.90
26691;DHT22;14307;51.718;8.938;2023-03-23T16:31:10;11.00;99.90
26691;DHT22;14307;51.718;8.938;2023-03-23T16:33:37;11.10;99.90
26691;DHT22;14307;51.718;8.938;2023-03-23T16:36:05;11.20;99.90
26691;DHT22;14307;51.718;8.938;2023-03-23T16:38:32;11.20;99.90
26691;DHT22;14307;51.718;8.938;2023-03-23T16:41:15;11.30;99.90
26691;DHT22;14307;51.718;8.938;2023-03-23T16:43:42;11.30;99.90
26691;DHT22;14307;51.718;8.938;2023-03-23T16:46:10;11.30;99.90
26691;DHT22;14307;51.718;8.938;2023-03-23T16:48:39;11.30;99.90
26691;DHT22;14307;51.718;8.938;2023-03-23T16:51:06;11.30;99.90
26691;DHT22;14307;51.718;8.938;2023-03-23T16:53:33;11.30;99.90
26691;DHT22;14307;51.718;8.938;2023-03-23T16:55:59;11.20;99.90
26691;DHT22;14307;51.718;8.938;2023-03-23T16:58:26;11.20;99.90
26691;DHT22;14307;51.718;8.938;2023-03-23T17:00:53;11.20;99.90
26691;DHT22;14307;51.718;8.938;2023-03-23T17:03:20;11.20;99.90
26691;DHT22;14307;51.718;8.938;2023-03-23T17:05:49;11.10;99.90
26691;DHT22;14307;51.718;8.938;2023-03-23T17:08:18;11.10;99.90
26691;DHT22;14307;51.718;8.938;2023-03-23T17:10:46;11.10;99.90
26691;DHT22;14307;51.718;8.938;2023-03-23T17:13:13;11.10;99.90
26691;DHT22;14307;51.718;8.938;2023-03-23T17:15:40;11.10;99.90
26691;DHT22;14307;51.718;8.938;2023-03-23T17:18:12;11.10;99.90
26691;DHT22;14307;51.718;8.938;2023-03-23T17:20:39;11.20;99.90
26691;DHT22;14307;51.718;8.938;2023-03-23T17:23:06;11.20;99.90
26691;DHT22;14307;51.718;8.938;2023-03-23T17:25:33;11.20;99.90
26691;DHT22;14307;51.718;8.938;2023-03-23T17:27:59;11.30;99.90
26691;DHT22;14307;51.718;8.938;2023-03-23T17:30:33;11.30;99.90
26691;DHT22;14307;51.718;8.938;2023-03-23T17:33:01;11.20;99.90
26691;DHT22;14307;51.718;8.938;2023-03-23T17:35:28;11.20;99.90
26691;DHT22;14307;51.718;8.938;2023-03-23T17:37:54;11.20;99.90
26691;DHT22;14307;51.718;8.938;2023-03-23T17:40:21;11.20;99.90
26691;DHT22;14307;51.718;8.938;2023-03-23T17:42:47;11.20;99.90
26691;DHT22;14307;51.718;8.938;2023-03-23T17:45:15;11.10;99.90
26691;DHT22;14307;51.718;8.938;2023-03-23T17:47:41;11.10;99.90
26691;DHT22;14307;51.718;8.938;2023-03-23T17:50:08;11.10;99.90
26691;DHT22;14307;51.718;8.938;2023-03-23T17:52:38;11.20;99.90
26691;DHT22;14307;51.718;8.938;2023-03-23T17:55:05;11.20;99.90